sensor_id;sensor_type;location;lat;lon;timestamp;P1;durP1;ratioP1;P2;durP2;ratioP2
52025;SDS011;38041;40.058;18.328;2022-08-21T00:01:35;7.88;;;1.65;;
52025;SDS011;38041;40.058;18.328;2022-08-21T00:04:06;7.70;;;1.35;;
52025;SDS011;38041;40.058;18.328;2022-08-21T00:06:34;8.20;;;2.00;;
52025;SDS011;38041;40.058;18.328;2022-08-21T00:09:03;8.48;;;1.30;;
52025;SDS011;38041;40.058;18.328;2022-08-21T00:11:33;7.43;;;1.48;;
52025;SDS011;38041;40.058;18.328;2022-08-21T00:14:02;4.70;;;1.08;;
52025;SDS011;38041;40.058;18.328;2022-08-21T00:16:30;11.07;;;1.60;;
52025;SDS011;38041;40.058;18.328;2022-08-21T00:18:57;9.77;;;1.83;;
52025;SDS011;38041;40.058;18.328;2022-08-21T00:21:26;9.40;;;3.00;;
52025;SDS011;38041;40.058;18.328;2022-08-21T00:23:53;7.88;;;1.42;;
52025;SDS011;38041;40.058;18.328;2022-08-21T00:26:21;7.45;;;1.58;;
52025;SDS011;38041;40.058;18.328;2022-08-21T00:28:49;5.07;;;1.25;;
52025;SDS011;38041;40.058;18.328;2022-08-21T00:31:17;6.25;;;1.17;;
52025;SDS011;38041;40.058;18.328;2022-08-21T00:33:45;5.25;;;1.23;;
52025;SDS011;38041;40.058;18.328;2022-08-21T00:36:13;7.25;;;1.27;;
52025;SDS011;38041;40.058;18.328;2022-08-21T00:38:40;12.30;;;1.00;;
52025;SDS011;38041;40.058;18.328;2022-08-21T00:41:09;4.35;;;1.20;;
52025;SDS011;38041;40.058;18.328;2022-08-21T00:43:37;8.02;;;1.15;;
52025;SDS011;38041;40.058;18.328;2022-08-21T00:46:05;5.35;;;0.60;;
52025;SDS011;38041;40.058;18.328;2022-08-21T00:48:34;5.78;;;0.73;;
52025;SDS011;38041;40.058;18.328;2022-08-21T00:51:06;4.18;;;0.70;;
52025;SDS011;38041;40.058;18.328;2022-08-21T00:53:39;3.95;;;0.75;;
52025;SDS011;38041;40.058;18.328;2022-08-21T00:56:08;2.63;;;0.50;;
52025;SDS011;38041;40.058;18.328;2022-08-21T00:58:37;3.65;;;0.93;;
52025;SDS011;38041;40.058;18.328;2022-08-21T01:01:05;4.32;;;0.82;;
52025;SDS011;38041;40.058;18.328;2022-08-21T01:03:34;7.75;;;0.82;;
52025;SDS011;38041;40.058;18.328;2022-08-21T01:06:03;4.13;;;0.70;;
52025;SDS011;38041;40.058;18.328;2022-08-21T01:08:31;7.90;;;0.98;;
52025;SDS011;38041;40.058;18.328;2022-08-21T01:10:59;2.90;;;0.60;;
52025;SDS011;38041;40.058;18.328;2022-08-21T01:13:28;6.53;;;0.68;;
52025;SDS011;38041;40.058;18.328;2022-08-21T01:15:58;8.32;;;1.20;;
52025;SDS011;38041;40.058;18.328;2022-08-21T01:18:26;4.40;;;0.93;;
52025;SDS011;38041;40.058;18.328;2022-08-21T01:23:24;5.65;;;0.50;;
52025;SDS011;38041;40.058;18.328;2022-08-21T01:25:52;5.70;;;0.60;;
52025;SDS011;38041;40.058;18.328;2022-08-21T01:28:19;4.93;;;0.93;;
52025;SDS011;38041;40.058;18.328;2022-08-21T01:30:48;2.60;;;0.40;;
52025;SDS011;38041;40.058;18.328;2022-08-21T01:33:18;4.65;;;0.50;;
52025;SDS011;38041;40.058;18.328;2022-08-21T01:35:45;5.13;;;0.68;;
52025;SDS011;38041;40.058;18.328;2022-08-21T01:38:14;5.85;;;0.88;;
52025;SDS011;38041;40.058;18.328;2022-08-21T01:40:42;2.55;;;0.90;;
52025;SDS011;38041;40.058;18.328;2022-08-21T01:43:10;4.63;;;0.70;;
52025;SDS011;38041;40.058;18.328;2022-08-21T01:45:38;3.80;;;0.57;;
52025;SDS011;38041;40.058;18.328;2022-08-21T01:48:05;5.03;;;0.60;;
52025;SDS011;38041;40.058;18.328;2022-08-21T01:50:33;2.83;;;0.40;;
52025;SDS011;38041;40.058;18.328;2022-08-21T01:53:01;2.85;;;0.95;;
52025;SDS011;38041;40.058;18.328;2022-08-21T01:55:28;4.25;;;0.90;;
52025;SDS011;38041;40.058;18.328;2022-08-21T01:57:56;5.20;;;0.85;;
52025;SDS011;38041;40.058;18.328;2022-08-21T02:00:25;5.28;;;0.47;;
52025;SDS011;38041;40.058;18.328;2022-08-21T02:02:53;3.67;;;0.60;;
52025;SDS011;38041;40.058;18.328;2022-08-21T02:05:20;3.28;;;0.50;;
52025;SDS011;38041;40.058;18.328;2022-08-21T02:07:49;7.70;;;0.73;;
52025;SDS011;38041;40.058;18.328;2022-08-21T02:10:24;4.10;;;0.60;;
52025;SDS011;38041;40.058;18.328;2022-08-21T02:12:53;1.67;;;0.80;;
52025;SDS011;38041;40.058;18.328;2022-08-21T02:15:22;6.68;;;0.40;;
52025;SDS011;38041;40.058;18.328;2022-08-21T02:17:51;5.95;;;0.40;;
52025;SDS011;38041;40.058;18.328;2022-08-21T02:20:24;2.97;;;0.50;;
52025;SDS011;38041;40.058;18.328;2022-08-21T02:22:52;3.78;;;0.40;;
52025;SDS011;38041;40.058;18.328;2022-08-21T02:25:20;3.28;;;0.35;;
52025;SDS011;38041;40.058;18.328;2022-08-21T02:27:48;6.47;;;0.63;;
52025;SDS011;38041;40.058;18.328;2022-08-21T02:30:18;2.53;;;0.38;;
52025;SDS011;38041;40.058;18.328;2022-08-21T02:32:46;7.20;;;0.60;;
52025;SDS011;38041;40.058;18.328;2022-08-21T02:35:14;5.00;;;0.40;;
52025;SDS011;38041;40.058;18.328;2022-08-21T02:37:45;6.72;;;0.30;;
52025;SDS011;38041;40.058;18.328;2022-08-21T02:40:14;3.40;;;0.40;;
52025;SDS011;38041;40.058;18.328;2022-08-21T02:42:43;7.90;;;0.70;;
52025;SDS011;38041;40.058;18.328;2022-08-21T02:45:11;1.98;;;0.43;;
52025;SDS011;38041;40.058;18.328;2022-08-21T02:47:40;7.68;;;1.05;;
52025;SDS011;38041;40.058;18.328;2022-08-21T02:50:17;3.30;;;0.40;;
52025;SDS011;38041;40.058;18.328;2022-08-21T02:52:45;5.45;;;0.70;;
52025;SDS011;38041;40.058;18.328;2022-08-21T02:55:13;5.57;;;0.57;;
52025;SDS011;38041;40.058;18.328;2022-08-21T02:57:40;6.95;;;0.60;;
52025;SDS011;38041;40.058;18.328;2022-08-21T03:00:08;3.58;;;0.50;;
52025;SDS011;38041;40.058;18.328;2022-08-21T03:02:38;10.55;;;1.00;;
52025;SDS011;38041;40.058;18.328;2022-08-21T03:05:07;2.95;;;0.82;;
52025;SDS011;38041;40.058;18.328;2022-08-21T03:07:35;4.60;;;0.50;;
52025;SDS011;38041;40.058;18.328;2022-08-21T03:10:04;3.15;;;0.75;;
52025;SDS011;38041;40.058;18.328;2022-08-21T03:12:32;4.05;;;0.40;;
52025;SDS011;38041;40.058;18.328;2022-08-21T03:15:06;6.72;;;0.85;;
52025;SDS011;38041;40.058;18.328;2022-08-21T03:17:34;2.83;;;0.40;;
52025;SDS011;38041;40.058;18.328;2022-08-21T03:20:02;5.55;;;0.60;;
52025;SDS011;38041;40.058;18.328;2022-08-21T03:22:30;2.88;;;0.57;;
52025;SDS011;38041;40.058;18.328;2022-08-21T03:24:59;4.45;;;0.95;;
52025;SDS011;38041;40.058;18.328;2022-08-21T03:27:28;4.20;;;0.57;;
52025;SDS011;38041;40.058;18.328;2022-08-21T03:29:57;2.33;;;0.40;;
52025;SDS011;38041;40.058;18.328;2022-08-21T03:32:25;8.00;;;0.68;;
52025;SDS011;38041;40.058;18.328;2022-08-21T03:34:53;2.70;;;0.43;;
52025;SDS011;38041;40.058;18.328;2022-08-21T03:37:20;2.63;;;0.50;;
52025;SDS011;38041;40.058;18.328;2022-08-21T03:39:48;7.22;;;0.52;;
52025;SDS011;38041;40.058;18.328;2022-08-21T03:42:16;2.20;;;0.63;;
52025;SDS011;38041;40.058;18.328;2022-08-21T03:44:43;2.90;;;0.82;;
52025;SDS011;38041;40.058;18.328;2022-08-21T03:47:11;4.95;;;0.55;;
52025;SDS011;38041;40.058;18.328;2022-08-21T03:49:39;3.95;;;0.40;;
52025;SDS011;38041;40.058;18.328;2022-08-21T03:52:07;11.77;;;0.82;;
52025;SDS011;38041;40.058;18.328;2022-08-21T03:54:35;4.43;;;0.45;;
52025;SDS011;38041;40.058;18.328;2022-08-21T03:57:02;4.00;;;0.40;;
52025;SDS011;38041;40.058;18.328;2022-08-21T03:59:30;3.08;;;0.60;;
52025;SDS011;38041;40.058;18.328;2022-08-21T04:01:58;4.05;;;1.25;;
52025;SDS011;38041;40.058;18.328;2022-08-21T04:04:27;3.90;;;0.85;;
52025;SDS011;38041;40.058;18.328;2022-08-21T04:06:55;2.42;;;0.88;;
52025;SDS011;38041;40.058;18.328;2022-08-21T04:09:24;8.00;;;0.70;;
52025;SDS011;38041;40.058;18.328;2022-08-21T04:11:52;8.15;;;0.60;;
52025;SDS011;38041;40.058;18.328;2022-08-21T04:14:20;3.05;;;0.52;;
52025;SDS011;38041;40.058;18.328;2022-08-21T04:16:48;4.47;;;0.60;;
52025;SDS011;38041;40.058;18.328;2022-08-21T04:19:16;3.97;;;0.57;;
52025;SDS011;38041;40.058;18.328;2022-08-21T04:21:43;8.18;;;0.90;;
52025;SDS011;38041;40.058;18.328;2022-08-21T04:24:11;1.63;;;0.70;;
52025;SDS011;38041;40.058;18.328;2022-08-21T04:26:39;2.47;;;0.70;;
52025;SDS011;38041;40.058;18.328;2022-08-21T04:29:07;10.63;;;2.53;;
52025;SDS011;38041;40.058;18.328;2022-08-21T04:31:35;6.22;;;0.60;;
52025;SDS011;38041;40.058;18.328;2022-08-21T04:34:06;5.28;;;0.90;;
52025;SDS011;38041;40.058;18.328;2022-08-21T04:36:33;4.05;;;0.90;;
52025;SDS011;38041;40.058;18.328;2022-08-21T04:39:01;3.35;;;0.55;;
52025;SDS011;38041;40.058;18.328;2022-08-21T04:41:29;4.47;;;0.50;;
52025;SDS011;38041;40.058;18.328;2022-08-21T04:43:56;3.13;;;0.52;;
52025;SDS011;38041;40.058;18.328;2022-08-21T04:46:24;2.42;;;0.40;;
52025;SDS011;38041;40.058;18.328;2022-08-21T04:48:52;6.50;;;0.93;;
52025;SDS011;38041;40.058;18.328;2022-08-21T04:51:24;2.45;;;0.60;;
52025;SDS011;38041;40.058;18.328;2022-08-21T04:53:54;6.18;;;0.80;;
52025;SDS011;38041;40.058;18.328;2022-08-21T04:58:50;6.35;;;0.80;;
52025;SDS011;38041;40.058;18.328;2022-08-21T05:01:21;10.48;;;0.80;;
52025;SDS011;38041;40.058;18.328;2022-08-21T05:03:51;4.25;;;1.77;;
52025;SDS011;38041;40.058;18.328;2022-08-21T05:06:19;4.55;;;0.98;;
52025;SDS011;38041;40.058;18.328;2022-08-21T05:08:48;5.00;;;0.60;;
52025;SDS011;38041;40.058;18.328;2022-08-21T05:11:16;4.75;;;0.60;;
52025;SDS011;38041;40.058;18.328;2022-08-21T05:13:43;5.25;;;0.60;;
52025;SDS011;38041;40.058;18.328;2022-08-21T05:16:12;2.78;;;0.70;;
52025;SDS011;38041;40.058;18.328;2022-08-21T05:18:39;3.85;;;0.45;;
52025;SDS011;38041;40.058;18.328;2022-08-21T05:21:07;5.13;;;1.13;;
52025;SDS011;38041;40.058;18.328;2022-08-21T05:23:36;4.63;;;1.13;;
52025;SDS011;38041;40.058;18.328;2022-08-21T05:26:04;4.78;;;0.70;;
52025;SDS011;38041;40.058;18.328;2022-08-21T05:28:31;3.40;;;0.55;;
52025;SDS011;38041;40.058;18.328;2022-08-21T05:30:59;6.72;;;0.70;;
52025;SDS011;38041;40.058;18.328;2022-08-21T05:33:27;2.53;;;0.47;;
52025;SDS011;38041;40.058;18.328;2022-08-21T05:35:55;4.28;;;0.60;;
52025;SDS011;38041;40.058;18.328;2022-08-21T05:38:26;4.72;;;0.98;;
52025;SDS011;38041;40.058;18.328;2022-08-21T05:40:54;2.47;;;0.43;;
52025;SDS011;38041;40.058;18.328;2022-08-21T05:43:22;5.93;;;0.73;;
52025;SDS011;38041;40.058;18.328;2022-08-21T05:45:50;6.88;;;0.60;;
52025;SDS011;38041;40.058;18.328;2022-08-21T05:48:21;2.90;;;1.05;;
52025;SDS011;38041;40.058;18.328;2022-08-21T06:02:18;6.82;;;0.90;;
52025;SDS011;38041;40.058;18.328;2022-08-21T06:04:46;2.20;;;0.68;;
52025;SDS011;38041;40.058;18.328;2022-08-21T06:07:14;4.72;;;1.73;;
52025;SDS011;38041;40.058;18.328;2022-08-21T06:09:42;4.07;;;1.70;;
52025;SDS011;38041;40.058;18.328;2022-08-21T06:12:10;6.03;;;1.02;;
52025;SDS011;38041;40.058;18.328;2022-08-21T06:14:39;6.40;;;1.17;;
52025;SDS011;38041;40.058;18.328;2022-08-21T06:17:09;3.03;;;1.35;;
52025;SDS011;38041;40.058;18.328;2022-08-21T06:19:37;5.80;;;2.08;;
52025;SDS011;38041;40.058;18.328;2022-08-21T06:22:05;8.00;;;3.25;;
52025;SDS011;38041;40.058;18.328;2022-08-21T06:24:32;4.97;;;2.55;;
52025;SDS011;38041;40.058;18.328;2022-08-21T06:27:04;4.35;;;1.58;;
52025;SDS011;38041;40.058;18.328;2022-08-21T06:29:32;8.02;;;4.90;;
52025;SDS011;38041;40.058;18.328;2022-08-21T06:32:00;10.88;;;4.95;;
52025;SDS011;38041;40.058;18.328;2022-08-21T06:34:29;17.65;;;9.00;;
52025;SDS011;38041;40.058;18.328;2022-08-21T06:36:56;9.77;;;3.60;;
52025;SDS011;38041;40.058;18.328;2022-08-21T06:39:24;15.43;;;5.82;;
52025;SDS011;38041;40.058;18.328;2022-08-21T06:41:52;33.53;;;21.65;;
52025;SDS011;38041;40.058;18.328;2022-08-21T06:44:26;13.00;;;8.88;;
52025;SDS011;38041;40.058;18.328;2022-08-21T06:46:54;11.30;;;7.43;;
52025;SDS011;38041;40.058;18.328;2022-08-21T06:49:22;19.40;;;7.82;;
52025;SDS011;38041;40.058;18.328;2022-08-21T06:51:49;14.40;;;6.32;;
52025;SDS011;38041;40.058;18.328;2022-08-21T06:54:17;17.80;;;9.70;;
52025;SDS011;38041;40.058;18.328;2022-08-21T06:56:45;10.35;;;3.67;;
52025;SDS011;38041;40.058;18.328;2022-08-21T06:59:13;10.90;;;6.72;;
52025;SDS011;38041;40.058;18.328;2022-08-21T07:01:40;9.00;;;3.50;;
52025;SDS011;38041;40.058;18.328;2022-08-21T07:04:08;7.80;;;4.05;;
52025;SDS011;38041;40.058;18.328;2022-08-21T07:06:36;17.83;;;1.92;;
52025;SDS011;38041;40.058;18.328;2022-08-21T07:09:04;9.52;;;4.53;;
52025;SDS011;38041;40.058;18.328;2022-08-21T07:11:32;10.82;;;4.30;;
52025;SDS011;38041;40.058;18.328;2022-08-21T07:14:00;6.70;;;3.38;;
52025;SDS011;38041;40.058;18.328;2022-08-21T07:16:27;11.70;;;3.15;;
52025;SDS011;38041;40.058;18.328;2022-08-21T07:18:55;8.57;;;3.10;;
52025;SDS011;38041;40.058;18.328;2022-08-21T07:21:23;13.73;;;3.42;;
52025;SDS011;38041;40.058;18.328;2022-08-21T07:23:51;11.43;;;5.57;;
52025;SDS011;38041;40.058;18.328;2022-08-21T07:26:20;12.00;;;6.18;;
52025;SDS011;38041;40.058;18.328;2022-08-21T07:28:48;27.02;;;15.55;;
52025;SDS011;38041;40.058;18.328;2022-08-21T07:31:16;12.25;;;7.05;;
52025;SDS011;38041;40.058;18.328;2022-08-21T07:33:45;10.05;;;6.28;;
52025;SDS011;38041;40.058;18.328;2022-08-21T07:36:13;16.45;;;10.80;;
52025;SDS011;38041;40.058;18.328;2022-08-21T07:38:41;14.65;;;7.72;;
52025;SDS011;38041;40.058;18.328;2022-08-21T07:41:14;10.18;;;4.25;;
52025;SDS011;38041;40.058;18.328;2022-08-21T07:43:43;7.07;;;3.43;;
52025;SDS011;38041;40.058;18.328;2022-08-21T07:46:11;19.95;;;8.75;;
52025;SDS011;38041;40.058;18.328;2022-08-21T07:48:39;9.20;;;4.85;;
52025;SDS011;38041;40.058;18.328;2022-08-21T07:51:08;6.95;;;4.65;;
52025;SDS011;38041;40.058;18.328;2022-08-21T07:53:36;7.45;;;3.60;;
52025;SDS011;38041;40.058;18.328;2022-08-21T07:56:05;10.55;;;5.13;;
52025;SDS011;38041;40.058;18.328;2022-08-21T07:58:33;13.38;;;9.05;;
52025;SDS011;38041;40.058;18.328;2022-08-21T08:01:00;9.50;;;5.63;;
52025;SDS011;38041;40.058;18.328;2022-08-21T08:03:28;13.63;;;5.38;;
52025;SDS011;38041;40.058;18.328;2022-08-21T08:05:56;9.10;;;1.92;;
52025;SDS011;38041;40.058;18.328;2022-08-21T08:08:25;13.55;;;5.13;;
52025;SDS011;38041;40.058;18.328;2022-08-21T08:10:53;8.88;;;5.43;;
52025;SDS011;38041;40.058;18.328;2022-08-21T08:13:21;14.88;;;6.68;;
52025;SDS011;38041;40.058;18.328;2022-08-21T08:15:49;12.27;;;5.70;;
52025;SDS011;38041;40.058;18.328;2022-08-21T08:18:16;19.58;;;12.35;;
52025;SDS011;38041;40.058;18.328;2022-08-21T08:20:44;19.25;;;8.95;;
52025;SDS011;38041;40.058;18.328;2022-08-21T08:23:13;8.50;;;4.38;;
52025;SDS011;38041;40.058;18.328;2022-08-21T08:25:41;18.30;;;4.43;;
52025;SDS011;38041;40.058;18.328;2022-08-21T08:28:08;5.47;;;2.92;;
52025;SDS011;38041;40.058;18.328;2022-08-21T08:30:36;7.80;;;2.50;;
52025;SDS011;38041;40.058;18.328;2022-08-21T08:33:04;14.55;;;2.20;;
52025;SDS011;38041;40.058;18.328;2022-08-21T08:35:32;6.88;;;1.50;;
52025;SDS011;38041;40.058;18.328;2022-08-21T08:38:00;10.95;;;4.40;;
52025;SDS011;38041;40.058;18.328;2022-08-21T08:40:33;8.00;;;3.05;;
52025;SDS011;38041;40.058;18.328;2022-08-21T08:43:04;7.25;;;1.45;;
52025;SDS011;38041;40.058;18.328;2022-08-21T08:45:34;11.43;;;1.92;;
52025;SDS011;38041;40.058;18.328;2022-08-21T08:48:05;8.82;;;0.90;;
52025;SDS011;38041;40.058;18.328;2022-08-21T08:50:45;10.50;;;1.33;;
52025;SDS011;38041;40.058;18.328;2022-08-21T08:53:22;6.68;;;0.80;;
52025;SDS011;38041;40.058;18.328;2022-08-21T08:55:51;12.15;;;0.93;;
52025;SDS011;38041;40.058;18.328;2022-08-21T08:58:24;5.20;;;1.08;;
52025;SDS011;38041;40.058;18.328;2022-08-21T09:00:52;6.28;;;0.63;;
52025;SDS011;38041;40.058;18.328;2022-08-21T09:03:25;9.38;;;0.85;;
52025;SDS011;38041;40.058;18.328;2022-08-21T09:05:59;5.88;;;1.08;;
52025;SDS011;38041;40.058;18.328;2022-08-21T09:08:42;11.80;;;1.15;;
52025;SDS011;38041;40.058;18.328;2022-08-21T09:24:31;5.53;;;1.10;;
52025;SDS011;38041;40.058;18.328;2022-08-21T09:29:28;10.82;;;1.25;;
52025;SDS011;38041;40.058;18.328;2022-08-21T09:31:57;9.25;;;1.10;;
52025;SDS011;38041;40.058;18.328;2022-08-21T09:34:27;6.47;;;1.20;;
52025;SDS011;38041;40.058;18.328;2022-08-21T09:36:55;9.07;;;1.10;;
52025;SDS011;38041;40.058;18.328;2022-08-21T09:39:28;4.43;;;0.75;;
52025;SDS011;38041;40.058;18.328;2022-08-21T09:42:00;5.13;;;1.42;;
52025;SDS011;38041;40.058;18.328;2022-08-21T09:44:29;8.18;;;1.40;;
52025;SDS011;38041;40.058;18.328;2022-08-21T09:46:58;5.45;;;1.08;;
52025;SDS011;38041;40.058;18.328;2022-08-21T09:49:26;9.20;;;2.50;;
52025;SDS011;38041;40.058;18.328;2022-08-21T09:51:55;6.88;;;2.65;;
52025;SDS011;38041;40.058;18.328;2022-08-21T09:54:26;12.02;;;3.95;;
52025;SDS011;38041;40.058;18.328;2022-08-21T09:59:42;6.50;;;1.98;;
52025;SDS011;38041;40.058;18.328;2022-08-21T10:04:53;6.95;;;2.22;;
52025;SDS011;38041;40.058;18.328;2022-08-21T10:07:21;11.60;;;4.95;;
52025;SDS011;38041;40.058;18.328;2022-08-21T10:10:00;10.07;;;3.67;;
52025;SDS011;38041;40.058;18.328;2022-08-21T10:12:31;10.70;;;4.20;;
52025;SDS011;38041;40.058;18.328;2022-08-21T10:17:44;11.88;;;3.33;;
52025;SDS011;38041;40.058;18.328;2022-08-21T10:20:22;9.07;;;1.33;;
52025;SDS011;38041;40.058;18.328;2022-08-21T10:23:02;17.02;;;7.97;;
52025;SDS011;38041;40.058;18.328;2022-08-21T10:46:19;12.77;;;2.50;;
52025;SDS011;38041;40.058;18.328;2022-08-21T10:48:54;6.30;;;1.65;;
52025;SDS011;38041;40.058;18.328;2022-08-21T10:51:46;7.88;;;1.75;;
52025;SDS011;38041;40.058;18.328;2022-08-21T10:56:49;5.85;;;1.85;;
52025;SDS011;38041;40.058;18.328;2022-08-21T11:04:20;5.72;;;0.90;;
52025;SDS011;38041;40.058;18.328;2022-08-21T11:06:53;5.97;;;0.98;;
52025;SDS011;38041;40.058;18.328;2022-08-21T11:09:24;5.10;;;0.63;;
52025;SDS011;38041;40.058;18.328;2022-08-21T11:11:57;6.55;;;0.65;;
52025;SDS011;38041;40.058;18.328;2022-08-21T11:14:39;3.80;;;0.57;;
52025;SDS011;38041;40.058;18.328;2022-08-21T11:17:09;7.28;;;1.38;;
52025;SDS011;38041;40.058;18.328;2022-08-21T11:19:43;12.05;;;5.65;;
52025;SDS011;38041;40.058;18.328;2022-08-21T11:22:21;6.38;;;0.82;;
52025;SDS011;38041;40.058;18.328;2022-08-21T11:30:05;5.45;;;0.65;;
52025;SDS011;38041;40.058;18.328;2022-08-21T11:35:40;8.85;;;1.05;;
52025;SDS011;38041;40.058;18.328;2022-08-21T11:45:53;6.68;;;0.98;;
52025;SDS011;38041;40.058;18.328;2022-08-21T11:51:10;7.38;;;0.63;;
52025;SDS011;38041;40.058;18.328;2022-08-21T11:53:44;4.30;;;0.60;;
52025;SDS011;38041;40.058;18.328;2022-08-21T11:56:21;3.50;;;0.95;;
52025;SDS011;38041;40.058;18.328;2022-08-21T11:58:53;6.35;;;0.85;;
52025;SDS011;38041;40.058;18.328;2022-08-21T12:01:22;35.75;;;3.83;;
52025;SDS011;38041;40.058;18.328;2022-08-21T12:03:57;4.53;;;0.95;;
52025;SDS011;38041;40.058;18.328;2022-08-21T12:09:00;5.38;;;0.60;;
52025;SDS011;38041;40.058;18.328;2022-08-21T12:11:29;3.78;;;0.93;;
52025;SDS011;38041;40.058;18.328;2022-08-21T12:16:29;4.75;;;1.05;;
52025;SDS011;38041;40.058;18.328;2022-08-21T12:21:31;6.10;;;0.80;;
52025;SDS011;38041;40.058;18.328;2022-08-21T12:26:53;5.85;;;0.73;;
52025;SDS011;38041;40.058;18.328;2022-08-21T12:32:19;3.72;;;0.98;;
52025;SDS011;38041;40.058;18.328;2022-08-21T12:34:50;8.25;;;2.33;;
52025;SDS011;38041;40.058;18.328;2022-08-21T12:39:48;6.50;;;2.25;;
52025;SDS011;38041;40.058;18.328;2022-08-21T12:42:22;5.35;;;1.25;;
52025;SDS011;38041;40.058;18.328;2022-08-21T12:52:19;3.75;;;0.70;;
52025;SDS011;38041;40.058;18.328;2022-08-21T12:54:47;10.77;;;1.17;;
52025;SDS011;38041;40.058;18.328;2022-08-21T12:57:22;4.55;;;1.00;;
52025;SDS011;38041;40.058;18.328;2022-08-21T12:59:55;8.18;;;0.73;;
52025;SDS011;38041;40.058;18.328;2022-08-21T13:02:33;2.67;;;1.02;;
52025;SDS011;38041;40.058;18.328;2022-08-21T13:05:04;4.60;;;0.60;;
52025;SDS011;38041;40.058;18.328;2022-08-21T13:07:33;4.80;;;0.70;;
52025;SDS011;38041;40.058;18.328;2022-08-21T13:10:22;5.82;;;2.35;;
52025;SDS011;38041;40.058;18.328;2022-08-21T13:12:51;4.03;;;1.00;;
52025;SDS011;38041;40.058;18.328;2022-08-21T13:15:32;6.25;;;1.38;;
52025;SDS011;38041;40.058;18.328;2022-08-21T13:18:01;4.45;;;0.70;;
52025;SDS011;38041;40.058;18.328;2022-08-21T13:20:33;12.27;;;1.73;;
52025;SDS011;38041;40.058;18.328;2022-08-21T13:23:01;3.72;;;1.42;;
52025;SDS011;38041;40.058;18.328;2022-08-21T13:25:30;4.65;;;1.23;;
52025;SDS011;38041;40.058;18.328;2022-08-21T13:28:05;7.20;;;1.50;;
52025;SDS011;38041;40.058;18.328;2022-08-21T13:30:33;11.65;;;2.25;;
52025;SDS011;38041;40.058;18.328;2022-08-21T13:33:03;6.35;;;2.70;;
52025;SDS011;38041;40.058;18.328;2022-08-21T13:38:19;8.68;;;2.05;;
52025;SDS011;38041;40.058;18.328;2022-08-21T13:40:58;4.07;;;1.15;;
52025;SDS011;38041;40.058;18.328;2022-08-21T13:43:28;7.50;;;0.90;;
52025;SDS011;38041;40.058;18.328;2022-08-21T13:45:56;4.63;;;0.88;;
52025;SDS011;38041;40.058;18.328;2022-08-21T13:48:25;4.68;;;1.02;;
52025;SDS011;38041;40.058;18.328;2022-08-21T13:50:53;3.58;;;1.50;;
52025;SDS011;38041;40.058;18.328;2022-08-21T13:53:32;4.03;;;1.35;;
52025;SDS011;38041;40.058;18.328;2022-08-21T13:56:00;4.47;;;1.85;;
52025;SDS011;38041;40.058;18.328;2022-08-21T13:58:30;3.42;;;2.00;;
52025;SDS011;38041;40.058;18.328;2022-08-21T14:00:58;5.95;;;1.73;;
52025;SDS011;38041;40.058;18.328;2022-08-21T14:03:29;4.13;;;1.35;;
52025;SDS011;38041;40.058;18.328;2022-08-21T14:05:58;9.98;;;5.10;;
52025;SDS011;38041;40.058;18.328;2022-08-21T14:08:28;3.20;;;0.95;;
52025;SDS011;38041;40.058;18.328;2022-08-21T14:10:56;16.95;;;13.90;;
52025;SDS011;38041;40.058;18.328;2022-08-21T14:13:34;8.60;;;5.55;;
52025;SDS011;38041;40.058;18.328;2022-08-21T14:21:40;4.95;;;3.38;;
52025;SDS011;38041;40.058;18.328;2022-08-21T14:26:45;9.70;;;7.70;;
52025;SDS011;38041;40.058;18.328;2022-08-21T14:29:14;6.70;;;3.90;;
52025;SDS011;38041;40.058;18.328;2022-08-21T14:31:42;9.63;;;4.57;;
52025;SDS011;38041;40.058;18.328;2022-08-21T14:34:11;9.38;;;4.40;;
52025;SDS011;38041;40.058;18.328;2022-08-21T14:36:40;6.97;;;4.82;;
52025;SDS011;38041;40.058;18.328;2022-08-21T14:39:08;9.45;;;5.85;;
52025;SDS011;38041;40.058;18.328;2022-08-21T14:41:35;8.60;;;6.05;;
52025;SDS011;38041;40.058;18.328;2022-08-21T14:44:03;9.95;;;7.57;;
52025;SDS011;38041;40.058;18.328;2022-08-21T14:46:32;8.50;;;5.10;;
52025;SDS011;38041;40.058;18.328;2022-08-21T14:49:02;10.02;;;6.65;;
52025;SDS011;38041;40.058;18.328;2022-08-21T14:51:30;3.95;;;1.38;;
52025;SDS011;38041;40.058;18.328;2022-08-21T14:53:58;11.27;;;7.30;;
52025;SDS011;38041;40.058;18.328;2022-08-21T14:56:26;7.28;;;4.55;;
52025;SDS011;38041;40.058;18.328;2022-08-21T14:58:54;14.30;;;5.78;;
52025;SDS011;38041;40.058;18.328;2022-08-21T15:01:22;10.02;;;6.05;;
52025;SDS011;38041;40.058;18.328;2022-08-21T15:03:50;7.15;;;6.45;;
52025;SDS011;38041;40.058;18.328;2022-08-21T15:06:19;12.75;;;6.75;;
52025;SDS011;38041;40.058;18.328;2022-08-21T15:08:47;9.18;;;7.35;;
52025;SDS011;38041;40.058;18.328;2022-08-21T15:11:19;12.90;;;7.18;;
52025;SDS011;38041;40.058;18.328;2022-08-21T15:13:47;6.78;;;2.92;;
52025;SDS011;38041;40.058;18.328;2022-08-21T15:16:17;14.52;;;12.98;;
52025;SDS011;38041;40.058;18.328;2022-08-21T15:18:45;29.38;;;26.15;;
52025;SDS011;38041;40.058;18.328;2022-08-21T15:21:13;11.48;;;6.38;;
52025;SDS011;38041;40.058;18.328;2022-08-21T15:23:40;16.02;;;13.73;;
52025;SDS011;38041;40.058;18.328;2022-08-21T15:26:08;10.55;;;3.88;;
52025;SDS011;38041;40.058;18.328;2022-08-21T15:28:36;6.75;;;3.53;;
52025;SDS011;38041;40.058;18.328;2022-08-21T15:31:04;3.10;;;2.05;;
52025;SDS011;38041;40.058;18.328;2022-08-21T15:33:32;4.55;;;2.70;;
52025;SDS011;38041;40.058;18.328;2022-08-21T15:36:00;2.63;;;0.40;;
52025;SDS011;38041;40.058;18.328;2022-08-21T15:38:28;1.27;;;0.40;;
52025;SDS011;38041;40.058;18.328;2022-08-21T15:40:56;3.50;;;1.20;;
52025;SDS011;38041;40.058;18.328;2022-08-21T15:43:27;1.35;;;0.60;;
52025;SDS011;38041;40.058;18.328;2022-08-21T15:45:59;2.25;;;0.73;;
52025;SDS011;38041;40.058;18.328;2022-08-21T15:48:27;3.72;;;0.55;;
52025;SDS011;38041;40.058;18.328;2022-08-21T15:50:55;2.47;;;0.75;;
52025;SDS011;38041;40.058;18.328;2022-08-21T15:53:23;4.55;;;2.28;;
52025;SDS011;38041;40.058;18.328;2022-08-21T15:55:51;9.30;;;5.95;;
52025;SDS011;38041;40.058;18.328;2022-08-21T15:58:18;10.48;;;7.85;;
52025;SDS011;38041;40.058;18.328;2022-08-21T16:00:47;2.65;;;1.45;;
52025;SDS011;38041;40.058;18.328;2022-08-21T16:03:16;6.40;;;2.97;;
52025;SDS011;38041;40.058;18.328;2022-08-21T16:05:46;5.65;;;2.88;;
52025;SDS011;38041;40.058;18.328;2022-08-21T16:08:15;3.72;;;1.10;;
52025;SDS011;38041;40.058;18.328;2022-08-21T16:10:43;5.13;;;0.70;;
52025;SDS011;38041;40.058;18.328;2022-08-21T16:13:18;4.45;;;1.33;;
52025;SDS011;38041;40.058;18.328;2022-08-21T16:15:49;5.85;;;1.50;;
52025;SDS011;38041;40.058;18.328;2022-08-21T16:18:17;3.00;;;1.92;;
52025;SDS011;38041;40.058;18.328;2022-08-21T16:20:45;8.57;;;0.98;;
52025;SDS011;38041;40.058;18.328;2022-08-21T16:23:12;4.22;;;1.02;;
52025;SDS011;38041;40.058;18.328;2022-08-21T16:25:40;2.58;;;0.63;;
52025;SDS011;38041;40.058;18.328;2022-08-21T16:28:09;4.70;;;1.10;;
52025;SDS011;38041;40.058;18.328;2022-08-21T16:30:37;5.40;;;0.70;;
52025;SDS011;38041;40.058;18.328;2022-08-21T16:33:05;3.47;;;0.30;;
52025;SDS011;38041;40.058;18.328;2022-08-21T16:35:34;5.82;;;0.60;;
52025;SDS011;38041;40.058;18.328;2022-08-21T16:38:02;10.77;;;2.20;;
52025;SDS011;38041;40.058;18.328;2022-08-21T16:40:30;7.78;;;1.60;;
52025;SDS011;38041;40.058;18.328;2022-08-21T16:42:58;7.68;;;1.23;;
52025;SDS011;38041;40.058;18.328;2022-08-21T16:45:26;5.05;;;0.60;;